sensor_id;sensor_type;location;lat;lon;timestamp;P1;durP1;ratioP1;P2;durP2;ratioP2
40695;SDS011;40425;51.102;17.208;2022-09-09T00:02:18;11.43;;;10.27;;
40695;SDS011;40425;51.102;17.208;2022-09-09T00:07:48;16.35;;;9.98;;
40695;SDS011;40425;51.102;17.208;2022-09-09T00:12:54;13.60;;;10.60;;
40695;SDS011;40425;51.102;17.208;2022-09-09T00:23:42;11.98;;;9.20;;
40695;SDS011;40425;51.102;17.208;2022-09-09T00:34:35;13.57;;;9.00;;
40695;SDS011;40425;51.102;17.208;2022-09-09T00:39:42;10.68;;;9.48;;
40695;SDS011;40425;51.102;17.208;2022-09-09T00:44:51;10.98;;;8.88;;
40695;SDS011;40425;51.102;17.208;2022-09-09T00:55:30;12.20;;;9.00;;
40695;SDS011;40425;51.102;17.208;2022-09-09T01:05:45;33.50;;;5.38;;
40695;SDS011;40425;51.102;17.208;2022-09-09T01:11:05;14.27;;;5.28;;
40695;SDS011;40425;51.102;17.208;2022-09-09T01:16:10;75.85;;;3.75;;
40695;SDS011;40425;51.102;17.208;2022-09-09T01:21:19;5.32;;;4.80;;
40695;SDS011;40425;51.102;17.208;2022-09-09T01:31:34;14.25;;;9.05;;
40695;SDS011;40425;51.102;17.208;2022-09-09T01:36:56;10.13;;;9.23;;
40695;SDS011;40425;51.102;17.208;2022-09-09T01:42:05;10.70;;;9.20;;
40695;SDS011;40425;51.102;17.208;2022-09-09T01:47:07;12.35;;;7.10;;
40695;SDS011;40425;51.102;17.208;2022-09-09T01:52:09;7.65;;;6.95;;
40695;SDS011;40425;51.102;17.208;2022-09-09T01:57:27;9.82;;;6.03;;
40695;SDS011;40425;51.102;17.208;2022-09-09T02:08:07;15.00;;;6.07;;
40695;SDS011;40425;51.102;17.208;2022-09-09T02:13:29;17.48;;;6.93;;
40695;SDS011;40425;51.102;17.208;2022-09-09T02:24:12;91.93;;;6.70;;
40695;SDS011;40425;51.102;17.208;2022-09-09T02:29:17;297.77;;;8.27;;
40695;SDS011;40425;51.102;17.208;2022-09-09T02:34:21;78.05;;;5.70;;
40695;SDS011;40425;51.102;17.208;2022-09-09T02:39:24;33.53;;;4.78;;
40695;SDS011;40425;51.102;17.208;2022-09-09T02:44:25;24.90;;;4.95;;
40695;SDS011;40425;51.102;17.208;2022-09-09T02:54:33;7.95;;;6.03;;
40695;SDS011;40425;51.102;17.208;2022-09-09T02:59:38;80.55;;;7.15;;
40695;SDS011;40425;51.102;17.208;2022-09-09T03:04:39;428.55;;;12.85;;
40695;SDS011;40425;51.102;17.208;2022-09-09T03:09:43;409.55;;;10.18;;
40695;SDS011;40425;51.102;17.208;2022-09-09T03:14:44;274.38;;;6.75;;
40695;SDS011;40425;51.102;17.208;2022-09-09T03:19:46;64.70;;;3.20;;
40695;SDS011;40425;51.102;17.208;2022-09-09T03:24:49;5.20;;;3.40;;
40695;SDS011;40425;51.102;17.208;2022-09-09T03:29:51;5.43;;;4.93;;
40695;SDS011;40425;51.102;17.208;2022-09-09T03:34:52;11.05;;;4.72;;
40695;SDS011;40425;51.102;17.208;2022-09-09T03:39:53;55.80;;;5.07;;
40695;SDS011;40425;51.102;17.208;2022-09-09T03:44:57;136.75;;;4.63;;
40695;SDS011;40425;51.102;17.208;2022-09-09T03:49:59;102.97;;;4.55;;
40695;SDS011;40425;51.102;17.208;2022-09-09T03:55:00;4.32;;;3.78;;
40695;SDS011;40425;51.102;17.208;2022-09-09T04:00:05;71.53;;;3.25;;
40695;SDS011;40425;51.102;17.208;2022-09-09T04:05:08;200.60;;;5.68;;
40695;SDS011;40425;51.102;17.208;2022-09-09T04:10:10;71.63;;;2.70;;
40695;SDS011;40425;51.102;17.208;2022-09-09T04:15:11;6.10;;;0.52;;
40695;SDS011;40425;51.102;17.208;2022-09-09T04:20:11;29.70;;;1.77;;
40695;SDS011;40425;51.102;17.208;2022-09-09T04:25:12;49.35;;;3.17;;
40695;SDS011;40425;51.102;17.208;2022-09-09T04:30:13;112.00;;;3.83;;
40695;SDS011;40425;51.102;17.208;2022-09-09T04:35:14;135.57;;;4.10;;
40695;SDS011;40425;51.102;17.208;2022-09-09T04:40:15;152.27;;;5.93;;
40695;SDS011;40425;51.102;17.208;2022-09-09T04:45:19;53.78;;;3.72;;
40695;SDS011;40425;51.102;17.208;2022-09-09T04:50:20;83.57;;;4.43;;
40695;SDS011;40425;51.102;17.208;2022-09-09T04:55:21;81.93;;;3.33;;
40695;SDS011;40425;51.102;17.208;2022-09-09T05:00:22;109.00;;;3.15;;
40695;SDS011;40425;51.102;17.208;2022-09-09T05:05:23;3.92;;;2.80;;
40695;SDS011;40425;51.102;17.208;2022-09-09T05:10:25;5.95;;;2.25;;
40695;SDS011;40425;51.102;17.208;2022-09-09T05:15:26;7.53;;;3.38;;
40695;SDS011;40425;51.102;17.208;2022-09-09T05:20:27;3.28;;;3.00;;
40695;SDS011;40425;51.102;17.208;2022-09-09T05:25:28;4.72;;;4.22;;
40695;SDS011;40425;51.102;17.208;2022-09-09T05:30:29;5.88;;;5.38;;
40695;SDS011;40425;51.102;17.208;2022-09-09T05:35:30;7.85;;;7.15;;
40695;SDS011;40425;51.102;17.208;2022-09-09T05:40:31;9.32;;;8.05;;
40695;SDS011;40425;51.102;17.208;2022-09-09T05:45:31;13.70;;;9.20;;
40695;SDS011;40425;51.102;17.208;2022-09-09T05:50:32;11.35;;;10.30;;
40695;SDS011;40425;51.102;17.208;2022-09-09T05:55:33;13.48;;;10.02;;
40695;SDS011;40425;51.102;17.208;2022-09-09T06:00:34;10.85;;;9.95;;
40695;SDS011;40425;51.102;17.208;2022-09-09T06:05:35;10.95;;;9.95;;
40695;SDS011;40425;51.102;17.208;2022-09-09T06:10:36;11.32;;;8.65;;
40695;SDS011;40425;51.102;17.208;2022-09-09T06:15:36;9.00;;;8.15;;
40695;SDS011;40425;51.102;17.208;2022-09-09T06:20:37;8.77;;;7.18;;
40695;SDS011;40425;51.102;17.208;2022-09-09T06:25:38;11.07;;;8.45;;
40695;SDS011;40425;51.102;17.208;2022-09-09T06:30:41;8.45;;;7.75;;
40695;SDS011;40425;51.102;17.208;2022-09-09T06:35:42;6.00;;;5.50;;
40695;SDS011;40425;51.102;17.208;2022-09-09T06:40:55;6.13;;;4.88;;
40695;SDS011;40425;51.102;17.208;2022-09-09T06:45:59;5.15;;;4.20;;
40695;SDS011;40425;51.102;17.208;2022-09-09T06:51:20;6.03;;;4.80;;
40695;SDS011;40425;51.102;17.208;2022-09-09T06:56:23;4.28;;;3.22;;
40695;SDS011;40425;51.102;17.208;2022-09-09T07:01:32;3.63;;;3.43;;
40695;SDS011;40425;51.102;17.208;2022-09-09T07:06:36;3.38;;;2.55;;
40695;SDS011;40425;51.102;17.208;2022-09-09T07:26:55;4.80;;;1.60;;
40695;SDS011;40425;51.102;17.208;2022-09-09T07:31:56;6.30;;;1.40;;
40695;SDS011;40425;51.102;17.208;2022-09-09T07:36:58;2.60;;;1.20;;
40695;SDS011;40425;51.102;17.208;2022-09-09T07:41:59;1.20;;;0.82;;
40695;SDS011;40425;51.102;17.208;2022-09-09T07:47:00;2.88;;;0.77;;
40695;SDS011;40425;51.102;17.208;2022-09-09T07:52:02;2.67;;;1.17;;
40695;SDS011;40425;51.102;17.208;2022-09-09T07:57:03;3.53;;;1.52;;
40695;SDS011;40425;51.102;17.208;2022-09-09T08:02:04;2.40;;;1.10;;
40695;SDS011;40425;51.102;17.208;2022-09-09T08:07:05;2.53;;;1.00;;
40695;SDS011;40425;51.102;17.208;2022-09-09T08:12:06;3.95;;;0.90;;
40695;SDS011;40425;51.102;17.208;2022-09-09T08:17:08;4.05;;;1.00;;
40695;SDS011;40425;51.102;17.208;2022-09-09T08:22:09;2.03;;;0.77;;
40695;SDS011;40425;51.102;17.208;2022-09-09T08:27:10;3.38;;;0.57;;
40695;SDS011;40425;51.102;17.208;2022-09-09T08:32:11;2.78;;;0.28;;
40695;SDS011;40425;51.102;17.208;2022-09-09T08:37:13;1.10;;;0.20;;
40695;SDS011;40425;51.102;17.208;2022-09-09T08:42:23;4.00;;;0.30;;
40695;SDS011;40425;51.102;17.208;2022-09-09T08:47:33;3.00;;;0.40;;
40695;SDS011;40425;51.102;17.208;2022-09-09T08:57:58;1.90;;;0.40;;
40695;SDS011;40425;51.102;17.208;2022-09-09T09:13:56;1.02;;;0.20;;
40695;SDS011;40425;51.102;17.208;2022-09-09T09:18:58;1.08;;;0.20;;
40695;SDS011;40425;51.102;17.208;2022-09-09T09:24:00;0.98;;;0.50;;
40695;SDS011;40425;51.102;17.208;2022-09-09T09:29:12;0.73;;;0.30;;
40695;SDS011;40425;51.102;17.208;2022-09-09T09:34:15;1.42;;;0.30;;
40695;SDS011;40425;51.102;17.208;2022-09-09T09:39:24;3.40;;;0.43;;
40695;SDS011;40425;51.102;17.208;2022-09-09T09:44:31;4.90;;;0.32;;
40695;SDS011;40425;51.102;17.208;2022-09-09T09:49:32;1.52;;;0.28;;
40695;SDS011;40425;51.102;17.208;2022-09-09T09:54:34;2.40;;;0.30;;
40695;SDS011;40425;51.102;17.208;2022-09-09T09:59:38;1.23;;;0.35;;
40695;SDS011;40425;51.102;17.208;2022-09-09T10:04:39;2.25;;;0.30;;
40695;SDS011;40425;51.102;17.208;2022-09-09T10:09:41;1.60;;;0.25;;
40695;SDS011;40425;51.102;17.208;2022-09-09T10:25:31;1.42;;;0.30;;
40695;SDS011;40425;51.102;17.208;2022-09-09T10:51:23;3.38;;;0.30;;
40695;SDS011;40425;51.102;17.208;2022-09-09T10:56:37;1.70;;;0.10;;
40695;SDS011;40425;51.102;17.208;2022-09-09T11:01:44;1.70;;;0.30;;
40695;SDS011;40425;51.102;17.208;2022-09-09T11:06:54;0.55;;;0.20;;
40695;SDS011;40425;51.102;17.208;2022-09-09T11:11:56;1.67;;;0.20;;
40695;SDS011;40425;51.102;17.208;2022-09-09T11:17:02;4.18;;;0.47;;
40695;SDS011;40425;51.102;17.208;2022-09-09T11:22:27;2.38;;;0.30;;
40695;SDS011;40425;51.102;17.208;2022-09-09T11:38:46;1.05;;;0.20;;
40695;SDS011;40425;51.102;17.208;2022-09-09T11:43:51;0.75;;;0.20;;
40695;SDS011;40425;51.102;17.208;2022-09-09T11:49:04;1.30;;;0.20;;
40695;SDS011;40425;51.102;17.208;2022-09-09T11:59:35;2.40;;;0.20;;
40695;SDS011;40425;51.102;17.208;2022-09-09T12:09:56;1.00;;;0.20;;
40695;SDS011;40425;51.102;17.208;2022-09-09T12:15:17;1.30;;;0.20;;
40695;SDS011;40425;51.102;17.208;2022-09-09T12:31:24;0.87;;;0.20;;
40695;SDS011;40425;51.102;17.208;2022-09-09T12:36:29;4.07;;;0.30;;
40695;SDS011;40425;51.102;17.208;2022-09-09T12:41:33;1.50;;;0.10;;
40695;SDS011;40425;51.102;17.208;2022-09-09T12:51:38;1.65;;;0.17;;
40695;SDS011;40425;51.102;17.208;2022-09-09T12:56:39;0.77;;;0.15;;
40695;SDS011;40425;51.102;17.208;2022-09-09T13:01:40;3.05;;;0.40;;
40695;SDS011;40425;51.102;17.208;2022-09-09T13:06:40;0.47;;;0.20;;
40695;SDS011;40425;51.102;17.208;2022-09-09T13:11:42;2.20;;;0.15;;
40695;SDS011;40425;51.102;17.208;2022-09-09T13:17:02;1.80;;;0.30;;
40695;SDS011;40425;51.102;17.208;2022-09-09T13:22:11;2.05;;;0.20;;
40695;SDS011;40425;51.102;17.208;2022-09-09T13:32:25;0.40;;;0.10;;
40695;SDS011;40425;51.102;17.208;2022-09-09T13:37:33;1.98;;;0.20;;
40695;SDS011;40425;51.102;17.208;2022-09-09T13:42:39;0.43;;;0.10;;
40695;SDS011;40425;51.102;17.208;2022-09-09T13:47:45;2.75;;;0.38;;
40695;SDS011;40425;51.102;17.208;2022-09-09T13:52:48;0.50;;;0.20;;
40695;SDS011;40425;51.102;17.208;2022-09-09T13:58:23;1.10;;;0.20;;
40695;SDS011;40425;51.102;17.208;2022-09-09T14:03:21;1.05;;;0.17;;
40695;SDS011;40425;51.102;17.208;2022-09-09T14:08:23;1.23;;;0.10;;
40695;SDS011;40425;51.102;17.208;2022-09-09T14:13:25;1.67;;;0.20;;
40695;SDS011;40425;51.102;17.208;2022-09-09T14:18:26;1.50;;;0.20;;
40695;SDS011;40425;51.102;17.208;2022-09-09T14:23:27;2.90;;;0.20;;
40695;SDS011;40425;51.102;17.208;2022-09-09T14:28:29;2.50;;;0.30;;
40695;SDS011;40425;51.102;17.208;2022-09-09T14:33:30;1.50;;;0.20;;
40695;SDS011;40425;51.102;17.208;2022-09-09T14:38:31;1.08;;;0.20;;
40695;SDS011;40425;51.102;17.208;2022-09-09T14:43:35;1.48;;;0.20;;
40695;SDS011;40425;51.102;17.208;2022-09-09T14:48:37;1.33;;;0.30;;
40695;SDS011;40425;51.102;17.208;2022-09-09T14:53:41;2.70;;;0.20;;
40695;SDS011;40425;51.102;17.208;2022-09-09T14:58:43;2.70;;;0.20;;
40695;SDS011;40425;51.102;17.208;2022-09-09T15:03:49;2.60;;;0.20;;
40695;SDS011;40425;51.102;17.208;2022-09-09T15:08:52;3.88;;;0.20;;
40695;SDS011;40425;51.102;17.208;2022-09-09T15:13:53;1.48;;;0.20;;
40695;SDS011;40425;51.102;17.208;2022-09-09T15:18:56;1.08;;;0.20;;
40695;SDS011;40425;51.102;17.208;2022-09-09T15:23:59;1.33;;;0.20;;
40695;SDS011;40425;51.102;17.208;2022-09-09T15:29:00;4.20;;;0.20;;
40695;SDS011;40425;51.102;17.208;2022-09-09T15:34:01;1.35;;;0.20;;
40695;SDS011;40425;51.102;17.208;2022-09-09T15:39:10;2.30;;;0.30;;
40695;SDS011;40425;51.102;17.208;2022-09-09T15:44:13;3.65;;;0.30;;
40695;SDS011;40425;51.102;17.208;2022-09-09T15:49:16;1.40;;;0.20;;
40695;SDS011;40425;51.102;17.208;2022-09-09T15:54:23;1.50;;;0.20;;
40695;SDS011;40425;51.102;17.208;2022-09-09T15:59:26;1.95;;;0.30;;
40695;SDS011;40425;51.102;17.208;2022-09-09T16:04:28;1.00;;;0.30;;
40695;SDS011;40425;51.102;17.208;2022-09-09T16:09:30;1.27;;;0.40;;
40695;SDS011;40425;51.102;17.208;2022-09-09T16:14:32;1.23;;;0.28;;
40695;SDS011;40425;51.102;17.208;2022-09-09T16:19:35;0.88;;;0.28;;
40695;SDS011;40425;51.102;17.208;2022-09-09T16:24:36;1.92;;;0.30;;
40695;SDS011;40425;51.102;17.208;2022-09-09T16:29:38;2.47;;;0.40;;
40695;SDS011;40425;51.102;17.208;2022-09-09T16:34:39;3.53;;;0.60;;
40695;SDS011;40425;51.102;17.208;2022-09-09T16:39:40;2.72;;;0.70;;
40695;SDS011;40425;51.102;17.208;2022-09-09T16:44:41;2.53;;;0.30;;
40695;SDS011;40425;51.102;17.208;2022-09-09T16:49:42;2.83;;;0.50;;
40695;SDS011;40425;51.102;17.208;2022-09-09T16:54:43;1.85;;;0.47;;
40695;SDS011;40425;51.102;17.208;2022-09-09T16:59:45;3.00;;;0.40;;
40695;SDS011;40425;51.102;17.208;2022-09-09T17:04:46;2.17;;;0.43;;
40695;SDS011;40425;51.102;17.208;2022-09-09T17:09:47;2.88;;;0.60;;
40695;SDS011;40425;51.102;17.208;2022-09-09T17:14:48;4.22;;;0.55;;
40695;SDS011;40425;51.102;17.208;2022-09-09T17:19:50;2.92;;;0.50;;
40695;SDS011;40425;51.102;17.208;2022-09-09T17:24:51;1.77;;;0.60;;
40695;SDS011;40425;51.102;17.208;2022-09-09T17:29:52;3.85;;;1.23;;
40695;SDS011;40425;51.102;17.208;2022-09-09T17:34:56;8.55;;;1.73;;
40695;SDS011;40425;51.102;17.208;2022-09-09T17:39:58;7.05;;;0.80;;
40695;SDS011;40425;51.102;17.208;2022-09-09T17:44:59;5.55;;;0.98;;
40695;SDS011;40425;51.102;17.208;2022-09-09T17:50:00;3.42;;;1.10;;
40695;SDS011;40425;51.102;17.208;2022-09-09T17:55:01;2.33;;;1.10;;
40695;SDS011;40425;51.102;17.208;2022-09-09T18:00:04;4.20;;;0.70;;
40695;SDS011;40425;51.102;17.208;2022-09-09T18:05:06;6.47;;;2.40;;
40695;SDS011;40425;51.102;17.208;2022-09-09T18:10:09;8.13;;;2.75;;
40695;SDS011;40425;51.102;17.208;2022-09-09T18:15:11;5.95;;;2.40;;
40695;SDS011;40425;51.102;17.208;2022-09-09T18:20:13;6.75;;;1.90;;
40695;SDS011;40425;51.102;17.208;2022-09-09T18:25:15;4.55;;;1.80;;
40695;SDS011;40425;51.102;17.208;2022-09-09T18:30:16;3.25;;;1.00;;
40695;SDS011;40425;51.102;17.208;2022-09-09T18:35:19;4.57;;;1.05;;
40695;SDS011;40425;51.102;17.208;2022-09-09T18:40:20;4.60;;;0.90;;
40695;SDS011;40425;51.102;17.208;2022-09-09T18:45:21;3.80;;;1.17;;
40695;SDS011;40425;51.102;17.208;2022-09-09T18:50:22;2.40;;;0.80;;
40695;SDS011;40425;51.102;17.208;2022-09-09T18:55:25;3.88;;;1.10;;
40695;SDS011;40425;51.102;17.208;2022-09-09T19:00:28;4.22;;;1.13;;
40695;SDS011;40425;51.102;17.208;2022-09-09T19:05:30;4.63;;;1.10;;
40695;SDS011;40425;51.102;17.208;2022-09-09T19:10:35;2.28;;;1.38;;
40695;SDS011;40425;51.102;17.208;2022-09-09T19:15:37;2.83;;;1.35;;
40695;SDS011;40425;51.102;17.208;2022-09-09T19:20:40;4.00;;;1.48;;
40695;SDS011;40425;51.102;17.208;2022-09-09T19:25:42;4.95;;;1.08;;
40695;SDS011;40425;51.102;17.208;2022-09-09T19:30:44;8.82;;;1.27;;
40695;SDS011;40425;51.102;17.208;2022-09-09T19:35:55;3.33;;;1.10;;
40695;SDS011;40425;51.102;17.208;2022-09-09T19:41:02;5.10;;;1.55;;
40695;SDS011;40425;51.102;17.208;2022-09-09T19:46:08;5.65;;;1.17;;
40695;SDS011;40425;51.102;17.208;2022-09-09T19:51:13;3.80;;;1.02;;
40695;SDS011;40425;51.102;17.208;2022-09-09T19:56:17;5.05;;;1.70;;
40695;SDS011;40425;51.102;17.208;2022-09-09T20:01:20;4.35;;;1.42;;
40695;SDS011;40425;51.102;17.208;2022-09-09T20:06:25;5.43;;;1.58;;
40695;SDS011;40425;51.102;17.208;2022-09-09T20:11:28;7.13;;;2.03;;
40695;SDS011;40425;51.102;17.208;2022-09-09T20:16:29;5.72;;;1.60;;
40695;SDS011;40425;51.102;17.208;2022-09-09T20:21:35;4.28;;;1.77;;
40695;SDS011;40425;51.102;17.208;2022-09-09T20:26:37;4.03;;;2.25;;
40695;SDS011;40425;51.102;17.208;2022-09-09T20:31:39;5.53;;;1.90;;
40695;SDS011;40425;51.102;17.208;2022-09-09T20:36:41;6.18;;;2.38;;
40695;SDS011;40425;51.102;17.208;2022-09-09T20:41:43;8.63;;;2.15;;
40695;SDS011;40425;51.102;17.208;2022-09-09T20:46:46;4.28;;;1.90;;
40695;SDS011;40425;51.102;17.208;2022-09-09T20:51:49;6.22;;;1.58;;
40695;SDS011;40425;51.102;17.208;2022-09-09T20:56:52;6.00;;;1.55;;
40695;SDS011;40425;51.102;17.208;2022-09-09T21:01:54;2.90;;;1.10;;
40695;SDS011;40425;51.102;17.208;2022-09-09T21:06:55;2.50;;;1.05;;
40695;SDS011;40425;51.102;17.208;2022-09-09T21:11:56;4.43;;;1.08;;
40695;SDS011;40425;51.102;17.208;2022-09-09T21:16:57;3.70;;;1.02;;
40695;SDS011;40425;51.102;17.208;2022-09-09T21:21:58;5.72;;;0.77;;
40695;SDS011;40425;51.102;17.208;2022-09-09T21:26:59;3.08;;;0.65;;
40695;SDS011;40425;51.102;17.208;2022-09-09T21:32:00;4.85;;;0.73;;
40695;SDS011;40425;51.102;17.208;2022-09-09T21:37:02;4.80;;;0.98;;
40695;SDS011;40425;51.102;17.208;2022-09-09T21:42:03;3.67;;;1.10;;
40695;SDS011;40425;51.102;17.208;2022-09-09T21:47:04;3.15;;;1.00;;
40695;SDS011;40425;51.102;17.208;2022-09-09T21:52:05;2.67;;;1.10;;
40695;SDS011;40425;51.102;17.208;2022-09-09T21:57:06;2.30;;;0.70;;
40695;SDS011;40425;51.102;17.208;2022-09-09T22:02:07;4.47;;;1.05;;
40695;SDS011;40425;51.102;17.208;2022-09-09T22:07:09;6.05;;;1.65;;
40695;SDS011;40425;51.102;17.208;2022-09-09T22:12:10;3.13;;;1.50;;
40695;SDS011;40425;51.102;17.208;2022-09-09T22:17:11;4.88;;;0.93;;
40695;SDS011;40425;51.102;17.208;2022-09-09T22:22:12;3.25;;;0.50;;
40695;SDS011;40425;51.102;17.208;2022-09-09T22:27:12;3.42;;;0.60;;
40695;SDS011;40425;51.102;17.208;2022-09-09T22:32:14;8.52;;;0.98;;
40695;SDS011;40425;51.102;17.208;2022-09-09T22:37:15;2.70;;;0.63;;
40695;SDS011;40425;51.102;17.208;2022-09-09T22:42:17;4.68;;;0.82;;
40695;SDS011;40425;51.102;17.208;2022-09-09T22:47:18;1.08;;;0.40;;
40695;SDS011;40425;51.102;17.208;2022-09-09T22:52:19;3.42;;;0.50;;
40695;SDS011;40425;51.102;17.208;2022-09-09T22:57:20;5.40;;;0.50;;
40695;SDS011;40425;51.102;17.208;2022-09-09T23:02:21;1.45;;;0.40;;
40695;SDS011;40425;51.102;17.208;2022-09-09T23:07:22;3.55;;;0.68;;
40695;SDS011;40425;51.102;17.208;2022-09-09T23:12:23;2.70;;;0.45;;
40695;SDS011;40425;51.102;17.208;2022-09-09T23:17:24;1.13;;;0.32;;
40695;SDS011;40425;51.102;17.208;2022-09-09T23:22:25;1.70;;;0.40;;
40695;SDS011;40425;51.102;17.208;2022-09-09T23:27:26;1.45;;;0.40;;
40695;SDS011;40425;51.102;17.208;2022-09-09T23:32:28;1.83;;;0.43;;
40695;SDS011;40425;51.102;17.208;2022-09-09T23:37:30;3.47;;;0.30;;
40695;SDS011;40425;51.102;17.208;2022-09-09T23:42:33;1.98;;;0.47;;
40695;SDS011;40425;51.102;17.208;2022-09-09T23:47:33;2.22;;;0.35;;
40695;SDS011;40425;51.102;17.208;2022-09-09T23:52:34;3.03;;;0.30;;
40695;SDS011;40425;51.102;17.208;2022-09-09T23:57:36;3.78;;;0.57;;
